createdAt,value
2017-09-22T00:02:16.857Z,14.95
2017-09-22T00:04:44.485Z,14.85
2017-09-22T00:07:12.078Z,14.68
2017-09-22T00:09:39.722Z,14.62
2017-09-22T00:12:07.313Z,14.65
2017-09-22T00:14:34.938Z,14.69
2017-09-22T00:17:02.534Z,14.67
2017-09-22T00:19:30.118Z,14.61
2017-09-22T00:21:57.772Z,14.56
2017-09-22T00:24:25.391Z,14.50
2017-09-22T00:26:53.024Z,14.48
2017-09-22T00:29:20.665Z,14.50
2017-09-22T00:31:48.672Z,14.50
2017-09-22T00:34:16.283Z,14.52
2017-09-22T00:36:43.894Z,14.55
2017-09-22T00:39:11.504Z,14.54
2017-09-22T00:41:39.135Z,14.46
2017-09-22T00:44:06.718Z,14.50
2017-09-22T00:46:34.371Z,14.49
2017-09-22T00:49:01.946Z,14.46
2017-09-22T00:51:29.539Z,14.47
2017-09-22T00:53:57.162Z,14.50
2017-09-22T00:56:24.768Z,14.49
2017-09-22T00:58:52.411Z,14.42
2017-09-22T01:01:20.010Z,14.35
2017-09-22T01:03:47.631Z,14.30
2017-09-22T01:06:15.220Z,14.28
2017-09-22T01:08:42.974Z,14.28
2017-09-22T01:11:10.554Z,14.25
2017-09-22T01:13:38.230Z,14.26
2017-09-22T01:16:05.834Z,14.29
2017-09-22T01:18:33.471Z,14.28
2017-09-22T01:21:01.056Z,14.23
2017-09-22T01:23:28.678Z,14.17
2017-09-22T01:25:56.286Z,14.15
2017-09-22T01:28:23.922Z,14.06
2017-09-22T01:30:51.525Z,14.03
2017-09-22T01:33:19.170Z,14.06
2017-09-22T01:35:46.835Z,14.04
2017-09-22T01:38:14.464Z,14.03
2017-09-22T01:40:42.071Z,14.03
2017-09-22T01:43:09.690Z,13.98
2017-09-22T01:45:37.298Z,13.92
2017-09-22T01:48:04.986Z,13.98
2017-09-22T01:50:32.595Z,14.01
2017-09-22T01:53:00.258Z,14.07
2017-09-22T01:55:27.858Z,14.04
2017-09-22T01:57:55.482Z,13.99
2017-09-22T02:00:23.074Z,13.95
2017-09-22T02:02:50.731Z,13.94
2017-09-22T02:05:18.330Z,13.85
2017-09-22T02:07:45.924Z,13.82
2017-09-22T02:10:13.544Z,13.78
2017-09-22T02:12:41.171Z,13.75
2017-09-22T02:15:08.798Z,13.77
2017-09-22T02:17:36.408Z,13.76
2017-09-22T02:20:04.028Z,13.70
2017-09-22T02:22:31.631Z,13.70
2017-09-22T02:24:59.274Z,13.70
2017-09-22T02:27:26.891Z,13.66
2017-09-22T02:29:54.554Z,13.72
2017-09-22T02:32:22.139Z,13.75
2017-09-22T02:34:49.771Z,13.67
2017-09-22T02:37:17.393Z,13.66
2017-09-22T02:39:45.040Z,13.64
2017-09-22T02:42:12.634Z,13.63
2017-09-22T02:44:40.351Z,13.57
2017-09-22T02:47:07.955Z,13.59
2017-09-22T02:49:35.590Z,13.47
2017-09-22T02:52:03.220Z,13.36
2017-09-22T02:54:30.822Z,13.33
2017-09-22T02:56:58.471Z,13.36
2017-09-22T02:59:26.076Z,13.42
2017-09-22T03:01:53.715Z,13.46
2017-09-22T03:04:21.366Z,13.43
2017-09-22T03:06:49.066Z,13.43
2017-09-22T03:09:16.691Z,13.42
2017-09-22T03:11:44.339Z,13.39
2017-09-22T03:14:11.959Z,13.33
2017-09-22T03:16:40.156Z,13.33
2017-09-22T03:19:07.766Z,13.28
2017-09-22T03:21:35.392Z,13.20
2017-09-22T03:24:02.984Z,13.21
2017-09-22T03:26:30.657Z,13.21
2017-09-22T03:28:58.453Z,13.13
2017-09-22T03:31:26.091Z,13.05
2017-09-22T03:33:53.667Z,13.03
2017-09-22T03:36:21.294Z,12.96
2017-09-22T03:38:48.892Z,12.99
2017-09-22T03:41:16.633Z,13.01
2017-09-22T03:43:44.323Z,13.06
2017-09-22T03:46:11.959Z,13.07
2017-09-22T03:48:39.598Z,13.04
2017-09-22T03:51:07.238Z,12.92
2017-09-22T03:53:34.822Z,12.77
2017-09-22T03:56:02.432Z,12.66
2017-09-22T03:58:30.066Z,12.62
2017-09-22T04:00:57.657Z,12.59
2017-09-22T04:03:25.279Z,12.41
2017-09-22T04:05:52.871Z,12.37
2017-09-22T04:08:20.570Z,12.30
2017-09-22T04:10:48.200Z,12.32
2017-09-22T04:13:15.864Z,12.35
2017-09-22T04:15:43.463Z,12.38
2017-09-22T04:18:11.163Z,12.43
2017-09-22T04:20:38.923Z,12.52
2017-09-22T04:23:06.554Z,12.61
2017-09-22T04:25:34.151Z,12.60
2017-09-22T04:28:01.785Z,12.59
2017-09-22T04:30:29.387Z,12.56
2017-09-22T04:32:57.018Z,12.40
2017-09-22T04:35:24.623Z,12.24
2017-09-22T04:37:52.252Z,12.15
2017-09-22T04:40:19.847Z,12.27
2017-09-22T04:42:47.494Z,12.35
2017-09-22T04:45:15.104Z,12.42
2017-09-22T04:47:42.748Z,12.48
2017-09-22T04:50:10.473Z,12.44
2017-09-22T04:52:38.774Z,12.43
2017-09-22T04:55:06.422Z,12.40
2017-09-22T04:57:34.014Z,12.36
2017-09-22T05:00:01.639Z,12.41
2017-09-22T05:02:29.248Z,12.42
2017-09-22T05:04:56.899Z,12.45
2017-09-22T05:07:24.514Z,12.46
2017-09-22T05:09:52.150Z,12.44
2017-09-22T05:12:19.739Z,12.48
2017-09-22T05:14:47.360Z,12.47
2017-09-22T05:17:14.987Z,12.47
2017-09-22T05:19:42.639Z,12.46
2017-09-22T05:22:10.255Z,12.46
2017-09-22T05:24:37.866Z,12.52
2017-09-22T05:27:05.504Z,12.54
2017-09-22T05:29:33.135Z,12.60
2017-09-22T05:32:00.880Z,12.60
2017-09-22T05:34:28.471Z,12.70
2017-09-22T05:36:56.151Z,12.70
2017-09-22T05:39:23.731Z,12.66
2017-09-22T05:41:51.350Z,12.68
2017-09-22T05:44:18.954Z,12.58
2017-09-22T05:46:46.634Z,12.44
2017-09-22T05:49:14.225Z,12.31
2017-09-22T05:51:41.854Z,12.11
2017-09-22T05:54:09.522Z,11.98
2017-09-22T05:56:37.198Z,11.89
2017-09-22T05:59:04.815Z,11.80
2017-09-22T06:01:32.507Z,11.84
2017-09-22T06:04:00.148Z,11.90
2017-09-22T06:06:27.738Z,12.01
2017-09-22T06:08:55.366Z,12.17
2017-09-22T06:11:23.026Z,12.26
2017-09-22T06:13:50.627Z,12.27
2017-09-22T06:16:18.274Z,12.19
2017-09-22T06:18:45.859Z,12.17
2017-09-22T06:21:13.474Z,12.20
2017-09-22T06:23:41.085Z,12.16
2017-09-22T06:26:08.698Z,12.19
2017-09-22T06:28:36.331Z,12.18
2017-09-22T06:31:03.930Z,12.20
2017-09-22T06:33:31.551Z,12.25
2017-09-22T06:35:59.178Z,12.27
2017-09-22T06:38:26.812Z,12.30
2017-09-22T06:40:54.411Z,12.37
2017-09-22T06:43:22.042Z,12.32
2017-09-22T06:45:49.651Z,12.34
2017-09-22T06:48:17.306Z,12.39
2017-09-22T06:50:44.908Z,12.46
2017-09-22T06:53:12.563Z,12.49
2017-09-22T06:55:40.178Z,12.52
2017-09-22T06:58:07.834Z,12.59
2017-09-22T07:00:35.431Z,12.65
2017-09-22T07:03:03.097Z,12.72
2017-09-22T07:05:30.770Z,12.80
2017-09-22T07:07:58.407Z,12.87
2017-09-22T07:10:26.032Z,12.93
2017-09-22T07:12:53.738Z,13.01
2017-09-22T07:15:21.352Z,13.05
2017-09-22T07:17:49.030Z,13.05
2017-09-22T07:20:16.636Z,13.08
2017-09-22T07:22:44.315Z,13.14
2017-09-22T07:25:12.015Z,13.23
2017-09-22T07:27:39.631Z,13.24
2017-09-22T07:30:07.308Z,13.23
2017-09-22T07:32:34.926Z,13.29
2017-09-22T07:35:02.671Z,13.31
2017-09-22T07:37:30.529Z,13.35
2017-09-22T07:39:58.150Z,13.44
2017-09-22T07:42:25.783Z,13.54
2017-09-22T07:44:53.424Z,13.59
2017-09-22T07:47:21.026Z,13.58
2017-09-22T07:49:48.704Z,13.62
2017-09-22T07:52:16.328Z,13.62
2017-09-22T07:54:44.165Z,13.64
2017-09-22T07:57:11.787Z,13.71
2017-09-22T07:59:39.423Z,13.74
2017-09-22T08:02:07.152Z,13.83
2017-09-22T08:04:34.803Z,13.91
2017-09-22T08:07:02.414Z,13.91
2017-09-22T08:09:30.059Z,13.94
2017-09-22T08:11:57.683Z,14.03
2017-09-22T08:14:25.308Z,14.09
2017-09-22T08:16:52.903Z,14.13
2017-09-22T08:19:20.768Z,14.26
2017-09-22T08:21:50.027Z,14.34
2017-09-22T08:24:17.656Z,14.37
2017-09-22T08:26:45.282Z,14.39
2017-09-22T08:29:13.163Z,14.39
2017-09-22T08:31:40.807Z,14.49
2017-09-22T08:34:08.418Z,14.57
2017-09-22T08:36:36.051Z,14.66
2017-09-22T08:39:03.729Z,14.77
2017-09-22T08:41:31.349Z,14.81
2017-09-22T08:43:58.951Z,14.89
2017-09-22T08:46:26.594Z,14.98
2017-09-22T08:48:54.284Z,14.96
2017-09-22T08:51:21.944Z,14.98
2017-09-22T08:53:49.560Z,14.95
2017-09-22T08:56:17.302Z,14.94
2017-09-22T08:58:44.906Z,14.99
2017-09-22T09:01:12.544Z,15.05
2017-09-22T09:03:40.142Z,15.17
2017-09-22T09:06:07.771Z,15.25
2017-09-22T09:08:35.362Z,15.35
2017-09-22T09:11:03.034Z,15.38
2017-09-22T09:13:30.666Z,15.36
2017-09-22T09:15:58.295Z,15.42
2017-09-22T09:18:25.902Z,15.50
2017-09-22T09:20:53.559Z,15.68
2017-09-22T09:23:21.167Z,15.81
2017-09-22T09:25:48.782Z,15.92
2017-09-22T09:28:16.421Z,16.03
2017-09-22T09:30:44.094Z,16.11
2017-09-22T09:33:11.736Z,16.16
2017-09-22T09:35:39.376Z,16.20
2017-09-22T09:38:07.096Z,16.28
2017-09-22T09:40:34.742Z,16.30
2017-09-22T09:43:02.356Z,16.47
2017-09-22T09:45:30.022Z,16.52
2017-09-22T09:48:01.976Z,16.56
2017-09-22T09:50:29.886Z,16.73
2017-09-22T09:52:57.550Z,16.81
2017-09-22T09:55:25.178Z,16.89
2017-09-22T09:57:52.818Z,16.97
2017-09-22T10:00:20.419Z,16.92
2017-09-22T10:02:48.054Z,17.01
2017-09-22T10:05:15.767Z,17.11
2017-09-22T10:07:43.425Z,17.23
2017-09-22T10:10:11.085Z,17.23
2017-09-22T10:12:38.715Z,17.20
2017-09-22T10:15:06.322Z,17.20
2017-09-22T10:17:33.965Z,17.40
2017-09-22T10:20:01.595Z,17.64
2017-09-22T10:22:29.235Z,17.91
2017-09-22T10:24:56.944Z,18.00
2017-09-22T10:27:24.567Z,18.11
2017-09-22T10:29:52.180Z,18.12
2017-09-22T10:32:19.827Z,18.08
2017-09-22T10:34:47.446Z,18.23
2017-09-22T10:37:15.080Z,18.30
2017-09-22T10:39:42.712Z,18.28
2017-09-22T10:42:10.331Z,18.24
2017-09-22T10:44:37.971Z,18.28
2017-09-22T10:47:05.615Z,18.30
2017-09-22T10:49:33.214Z,18.40
2017-09-22T10:52:00.855Z,18.50
2017-09-22T10:54:28.451Z,18.50
2017-09-22T10:56:56.170Z,18.68
2017-09-22T10:59:23.778Z,18.94
2017-09-22T11:01:51.411Z,19.13
2017-09-22T11:04:19.030Z,19.22
2017-09-22T11:06:46.678Z,19.16
2017-09-22T11:09:14.298Z,19.15
2017-09-22T11:11:41.927Z,19.17
2017-09-22T11:14:09.531Z,19.26
2017-09-22T11:16:37.174Z,19.46
2017-09-22T11:19:04.763Z,19.55
2017-09-22T11:21:32.378Z,19.70
2017-09-22T11:24:00.086Z,19.62
2017-09-22T11:26:27.697Z,19.57
2017-09-22T11:28:55.374Z,19.71
2017-09-22T11:31:22.399Z,19.62
2017-09-22T11:33:49.471Z,19.68
2017-09-22T11:36:17.076Z,19.61
2017-09-22T11:38:44.718Z,19.62
2017-09-22T11:41:12.349Z,19.75
2017-09-22T11:43:39.983Z,19.68
2017-09-22T11:46:07.591Z,19.70
2017-09-22T11:48:35.223Z,19.68
2017-09-22T11:51:02.824Z,19.59
2017-09-22T11:53:30.546Z,19.70
2017-09-22T11:55:58.164Z,19.76
2017-09-22T11:58:25.766Z,19.72
2017-09-22T12:00:53.410Z,19.82
2017-09-22T12:03:21.004Z,19.85
2017-09-22T12:05:48.632Z,19.88
2017-09-22T12:08:16.286Z,20.14
2017-09-22T12:10:43.889Z,20.28
2017-09-22T12:13:11.481Z,20.26
2017-09-22T12:15:39.099Z,20.31
2017-09-22T12:18:06.700Z,20.62
2017-09-22T12:20:34.352Z,21.00
2017-09-22T12:23:01.970Z,21.00
2017-09-22T12:25:29.650Z,20.67
2017-09-22T12:27:57.247Z,20.61
2017-09-22T12:30:24.884Z,20.55
2017-09-22T12:32:52.498Z,20.31
2017-09-22T12:35:20.137Z,20.10
2017-09-22T12:37:47.746Z,20.08
2017-09-22T12:40:15.363Z,20.06
2017-09-22T12:42:42.958Z,20.09
2017-09-22T12:45:10.619Z,20.13
2017-09-22T12:47:38.210Z,20.13
2017-09-22T12:50:05.832Z,20.14
2017-09-22T12:52:33.463Z,20.06
2017-09-22T12:55:01.122Z,20.08
2017-09-22T12:57:28.731Z,20.12
2017-09-22T12:59:56.341Z,20.10
2017-09-22T13:02:24.042Z,20.13
2017-09-22T13:04:51.647Z,20.23
2017-09-22T13:07:19.295Z,20.38
2017-09-22T13:09:46.894Z,20.70
2017-09-22T13:12:14.550Z,20.63
2017-09-22T13:14:42.162Z,20.71
2017-09-22T13:17:09.790Z,21.18
2017-09-22T13:19:37.415Z,21.94
2017-09-22T13:22:05.036Z,22.25
2017-09-22T13:24:32.621Z,22.65
2017-09-22T13:27:00.256Z,22.93
2017-09-22T13:29:27.850Z,23.24
2017-09-22T13:31:55.503Z,23.27
2017-09-22T13:34:23.092Z,22.45
2017-09-22T13:36:50.702Z,21.75
2017-09-22T13:39:18.326Z,21.19
2017-09-22T13:41:45.947Z,20.90
2017-09-22T13:44:13.568Z,20.72
2017-09-22T13:46:41.163Z,20.66
2017-09-22T13:49:08.795Z,20.50
2017-09-22T13:51:36.415Z,20.40
2017-09-22T13:54:04.038Z,20.35
2017-09-22T13:56:31.630Z,20.29
2017-09-22T13:58:59.254Z,20.26
2017-09-22T14:01:26.847Z,20.22
2017-09-22T14:03:54.486Z,20.18
2017-09-22T14:06:22.085Z,20.11
2017-09-22T14:08:49.751Z,20.05
2017-09-22T14:11:17.365Z,20.01
2017-09-22T14:13:45.011Z,19.98
2017-09-22T14:16:12.595Z,19.94
2017-09-22T14:18:40.239Z,19.98
2017-09-22T14:21:07.846Z,19.98
2017-09-22T14:23:35.482Z,19.99
2017-09-22T14:26:03.111Z,20.13
2017-09-22T14:28:30.742Z,20.14
2017-09-22T14:30:58.331Z,20.24
2017-09-22T14:33:26.003Z,20.28
2017-09-22T14:35:53.607Z,20.46
2017-09-22T14:38:21.261Z,20.79
2017-09-22T14:40:48.883Z,20.78
2017-09-22T14:43:16.479Z,20.70
2017-09-22T14:45:44.118Z,20.60
2017-09-22T14:48:11.709Z,20.55
2017-09-22T14:50:39.347Z,20.45
2017-09-22T14:53:06.972Z,20.36
2017-09-22T14:55:34.598Z,20.35
2017-09-22T14:58:02.204Z,20.36
2017-09-22T15:00:29.837Z,20.40
2017-09-22T15:02:57.444Z,20.42
2017-09-22T15:05:25.082Z,20.46
2017-09-22T15:07:52.672Z,20.58
2017-09-22T15:10:20.305Z,20.84
2017-09-22T15:12:47.895Z,21.05
2017-09-22T15:15:15.542Z,21.13
2017-09-22T15:17:43.128Z,21.17
2017-09-22T15:20:10.782Z,21.06
2017-09-22T15:22:39.058Z,20.95
2017-09-22T15:25:06.703Z,20.85
2017-09-22T15:27:34.310Z,20.75
2017-09-22T15:30:01.936Z,20.64
2017-09-22T15:32:29.547Z,20.48
2017-09-22T15:34:57.201Z,20.37
2017-09-22T15:37:24.819Z,20.36
2017-09-22T15:39:52.571Z,20.38
2017-09-22T15:42:20.227Z,20.34
2017-09-22T15:44:47.926Z,20.29
2017-09-22T15:47:15.524Z,20.18
2017-09-22T15:49:43.202Z,20.03
2017-09-22T15:52:10.817Z,19.91
2017-09-22T15:54:38.434Z,19.82
2017-09-22T15:57:06.231Z,19.70
2017-09-22T15:59:33.831Z,19.66
2017-09-22T16:02:01.450Z,19.64
2017-09-22T16:04:29.051Z,19.66
2017-09-22T16:06:56.698Z,19.61
2017-09-22T16:09:24.304Z,19.59
2017-09-22T16:11:51.936Z,19.55
2017-09-22T16:14:19.539Z,19.50
2017-09-22T16:16:47.174Z,19.45
2017-09-22T16:19:14.766Z,19.45
2017-09-22T16:21:42.409Z,19.43
2017-09-22T16:24:10.095Z,19.40
2017-09-22T16:26:37.727Z,19.44
2017-09-22T16:29:05.331Z,19.54
2017-09-22T16:31:32.961Z,19.54
2017-09-22T16:34:00.608Z,19.49
2017-09-22T16:36:28.250Z,19.48
2017-09-22T16:38:55.875Z,19.47
2017-09-22T16:41:23.498Z,19.41
2017-09-22T16:43:51.098Z,19.40
2017-09-22T16:46:18.732Z,19.29
2017-09-22T16:48:46.335Z,19.23
2017-09-22T16:51:13.971Z,19.11
2017-09-22T16:53:41.600Z,18.95
2017-09-22T16:56:09.228Z,18.90
2017-09-22T16:58:36.856Z,18.85
2017-09-22T17:01:04.510Z,18.81
2017-09-22T17:03:32.303Z,18.78
2017-09-22T17:05:59.952Z,18.78
2017-09-22T17:08:27.567Z,18.77
2017-09-22T17:10:55.269Z,18.69
2017-09-22T17:13:22.990Z,18.66
2017-09-22T17:15:50.696Z,18.58
2017-09-22T17:18:18.359Z,18.54
2017-09-22T17:20:46.029Z,18.48
2017-09-22T17:23:13.667Z,18.43
2017-09-22T17:25:41.306Z,18.44
2017-09-22T17:28:09.024Z,18.41
2017-09-22T17:30:36.670Z,18.39
2017-09-22T17:33:04.299Z,18.41
2017-09-22T17:35:31.924Z,18.42
2017-09-22T17:37:59.531Z,18.35
2017-09-22T17:40:27.172Z,18.34
2017-09-22T17:42:54.825Z,18.21
2017-09-22T17:45:22.475Z,18.10
2017-09-22T17:47:50.074Z,18.01
2017-09-22T17:50:17.727Z,17.91
2017-09-22T17:52:45.516Z,17.85
2017-09-22T17:55:13.120Z,17.83
2017-09-22T17:57:40.830Z,17.89
2017-09-22T18:00:08.499Z,17.95
2017-09-22T18:02:36.334Z,17.93
2017-09-22T18:05:04.069Z,17.97
2017-09-22T18:07:31.668Z,17.97
2017-09-22T18:09:59.271Z,17.91
2017-09-22T18:12:26.906Z,17.80
2017-09-22T18:14:54.559Z,17.78
2017-09-22T18:17:22.206Z,17.82
2017-09-22T18:19:49.911Z,17.82
2017-09-22T18:22:18.412Z,17.85
2017-09-22T18:24:46.051Z,17.91
2017-09-22T18:27:14.348Z,17.96
2017-09-22T18:29:41.951Z,18.00
2017-09-22T18:32:10.716Z,18.02
2017-09-22T18:34:38.350Z,18.05
2017-09-22T18:37:06.067Z,18.02
2017-09-22T18:39:33.771Z,17.97
2017-09-22T18:42:01.433Z,17.91
2017-09-22T18:44:29.346Z,17.85
2017-09-22T18:46:57.070Z,17.78
2017-09-22T18:49:24.708Z,17.72
2017-09-22T18:51:53.240Z,17.68
2017-09-22T18:54:21.347Z,17.72
2017-09-22T18:56:49.477Z,17.77
2017-09-22T18:59:17.875Z,17.79
2017-09-22T19:01:45.671Z,17.85
2017-09-22T19:04:13.408Z,17.79
2017-09-22T19:06:41.060Z,17.66
2017-09-22T19:09:08.702Z,17.58
2017-09-22T19:11:36.340Z,17.54
2017-09-22T19:14:04.064Z,17.60
2017-09-22T19:16:31.717Z,17.63
2017-09-22T19:18:59.368Z,17.71
2017-09-22T19:21:27.019Z,17.77
2017-09-22T19:23:54.616Z,17.78
2017-09-22T19:26:22.247Z,17.81
2017-09-22T19:28:49.858Z,17.80
2017-09-22T19:31:18.140Z,17.86
2017-09-22T19:33:45.950Z,17.86
2017-09-22T19:36:13.618Z,17.87
2017-09-22T19:38:41.234Z,17.84
2017-09-22T19:41:08.905Z,17.80
2017-09-22T19:43:36.511Z,17.74
2017-09-22T19:46:04.173Z,17.74
2017-09-22T19:48:31.780Z,17.71
2017-09-22T19:50:59.441Z,17.69
2017-09-22T19:53:27.077Z,17.72
2017-09-22T19:55:54.764Z,17.75
2017-09-22T19:58:22.378Z,17.74
2017-09-22T20:00:50.006Z,17.70
2017-09-22T20:03:17.621Z,17.70
2017-09-22T20:05:45.248Z,17.71
2017-09-22T20:08:13.165Z,17.75
2017-09-22T20:10:40.799Z,17.73
2017-09-22T20:13:08.475Z,17.70
2017-09-22T20:15:36.074Z,17.75
2017-09-22T20:18:03.716Z,17.72
2017-09-22T20:20:31.350Z,17.74
2017-09-22T20:22:58.994Z,17.74
2017-09-22T20:25:26.598Z,17.78
2017-09-22T20:27:54.248Z,17.80
2017-09-22T20:30:21.882Z,17.84
2017-09-22T20:32:49.566Z,17.82
2017-09-22T20:35:17.162Z,17.80
2017-09-22T20:37:44.822Z,17.69
2017-09-22T20:40:12.453Z,17.53
2017-09-22T20:42:40.064Z,17.47
2017-09-22T20:45:07.727Z,17.40
2017-09-22T20:47:35.355Z,17.33
2017-09-22T20:50:02.996Z,17.31
2017-09-22T20:52:30.623Z,17.30
2017-09-22T20:54:58.279Z,17.33
2017-09-22T20:57:25.919Z,17.32
2017-09-22T20:59:53.598Z,17.31
2017-09-22T21:02:21.196Z,17.30
2017-09-22T21:04:48.850Z,17.36
2017-09-22T21:07:16.498Z,17.38
2017-09-22T21:09:44.162Z,17.36
2017-09-22T21:12:11.766Z,17.34
2017-09-22T21:14:39.437Z,17.34
2017-09-22T21:17:07.057Z,17.33
2017-09-22T21:19:34.667Z,17.27
2017-09-22T21:22:02.346Z,17.23
2017-09-22T21:24:29.957Z,17.25
2017-09-22T21:26:57.747Z,17.22
2017-09-22T21:29:25.339Z,17.21
2017-09-22T21:31:52.964Z,17.19
2017-09-22T21:34:20.574Z,17.12
2017-09-22T21:36:48.224Z,17.04
2017-09-22T21:39:15.827Z,16.95
2017-09-22T21:41:43.504Z,16.92
2017-09-22T21:44:11.169Z,16.96
2017-09-22T21:46:38.795Z,17.00
2017-09-22T21:49:06.442Z,17.02
2017-09-22T21:51:34.056Z,16.97
2017-09-22T21:54:01.756Z,16.88
2017-09-22T21:56:29.403Z,16.78
2017-09-22T21:58:57.054Z,16.80
2017-09-22T22:01:24.683Z,16.90
2017-09-22T22:03:57.990Z,16.95
2017-09-22T22:06:31.241Z,16.95
2017-09-22T22:09:04.873Z,16.92
2017-09-22T22:11:32.516Z,16.94
2017-09-22T22:14:00.282Z,16.92
2017-09-22T22:16:27.892Z,16.95
2017-09-22T22:18:55.543Z,16.94
2017-09-22T22:21:23.161Z,16.97
2017-09-22T22:23:50.849Z,17.01
2017-09-22T22:26:18.442Z,16.97
2017-09-22T22:28:46.072Z,16.94
2017-09-22T22:31:13.670Z,16.94
2017-09-22T22:33:41.326Z,16.93
2017-09-22T22:36:14.831Z,16.84
2017-09-22T22:38:42.474Z,16.85
2017-09-22T22:41:10.072Z,16.88
2017-09-22T22:43:37.731Z,16.96
2017-09-22T22:46:05.436Z,16.97
2017-09-22T22:48:33.142Z,16.98
2017-09-22T22:51:00.760Z,17.01
2017-09-22T22:53:28.380Z,17.02
2017-09-22T22:55:56.021Z,17.02
2017-09-22T22:58:23.715Z,17.04
2017-09-22T23:00:51.324Z,17.05
2017-09-22T23:03:18.935Z,17.07
2017-09-22T23:05:46.584Z,17.06
2017-09-22T23:08:14.192Z,17.06
2017-09-22T23:10:41.855Z,17.07
2017-09-22T23:13:09.554Z,17.06
2017-09-22T23:15:37.204Z,17.00
2017-09-22T23:18:04.810Z,16.94
2017-09-22T23:20:32.580Z,16.91
2017-09-22T23:23:00.228Z,16.92
2017-09-22T23:25:27.858Z,16.93
2017-09-22T23:27:55.499Z,16.94
2017-09-22T23:30:23.138Z,16.94
2017-09-22T23:32:50.754Z,16.94
2017-09-22T23:35:18.394Z,16.96
2017-09-22T23:37:46.128Z,16.93
2017-09-22T23:40:13.766Z,16.91
2017-09-22T23:42:41.394Z,16.94
2017-09-22T23:45:09.283Z,16.93
2017-09-22T23:47:36.907Z,16.92
2017-09-22T23:50:04.527Z,16.91
2017-09-22T23:52:32.123Z,16.87
2017-09-22T23:54:59.754Z,16.85
2017-09-22T23:57:27.343Z,16.83
2017-09-22T23:59:54.961Z,16.83
